createdAt,value
2022-07-31T00:02:04.615Z,17.18
2022-07-31T00:04:40.272Z,17.18
2022-07-31T00:07:33.850Z,17.18
2022-07-31T00:10:13.015Z,17.17
2022-07-31T00:12:59.341Z,17.19
2022-07-31T00:15:40.980Z,17.19
2022-07-31T00:18:37.056Z,17.19
2022-07-31T00:21:08.769Z,17.19
2022-07-31T00:24:00.394Z,17.17
2022-07-31T00:26:52.949Z,17.17
2022-07-31T00:29:35.519Z,17.17
2022-07-31T00:32:09.191Z,17.16
2022-07-31T00:34:43.595Z,17.16
2022-07-31T00:37:38.520Z,17.17
2022-07-31T00:40:31.630Z,17.19
2022-07-31T00:43:21.395Z,17.20
2022-07-31T00:46:18.334Z,17.25
2022-07-31T00:49:12.013Z,17.27
2022-07-31T00:52:22.777Z,17.30
2022-07-31T00:55:28.866Z,17.31
2022-07-31T00:59:11.124Z,17.37
2022-07-31T01:06:23.533Z,17.41
2022-07-31T01:10:08.750Z,17.41
2022-07-31T01:13:05.898Z,17.41
2022-07-31T01:16:04.852Z,17.39
2022-07-31T01:18:46.597Z,17.37
2022-07-31T01:21:48.751Z,17.37
2022-07-31T01:24:46.162Z,17.34
2022-07-31T01:28:09.675Z,17.38
2022-07-31T01:31:10.646Z,17.34
2022-07-31T01:34:42.020Z,17.37
2022-07-31T01:37:45.382Z,17.33
2022-07-31T01:40:50.739Z,17.29
2022-07-31T01:44:05.707Z,17.24
2022-07-31T01:47:01.206Z,17.18
2022-07-31T01:49:56.521Z,17.12
2022-07-31T01:52:48.327Z,17.08
2022-07-31T01:56:02.851Z,17.01
2022-07-31T01:58:31.074Z,16.98
2022-07-31T02:01:18.834Z,16.93
2022-07-31T02:03:56.369Z,16.89
2022-07-31T02:06:50.766Z,16.83
2022-07-31T02:09:25.119Z,16.79
2022-07-31T02:12:17.309Z,16.74
2022-07-31T02:15:26.690Z,16.67
2022-07-31T02:18:35.630Z,16.63
2022-07-31T02:21:32.081Z,16.59
2022-07-31T02:24:25.150Z,16.57
2022-07-31T02:27:55.520Z,16.55
2022-07-31T02:30:39.426Z,16.52
2022-07-31T02:33:32.091Z,16.49
2022-07-31T02:36:25.907Z,16.47
2022-07-31T02:39:18.969Z,16.43
2022-07-31T02:42:10.983Z,16.40
2022-07-31T02:45:04.122Z,16.36
2022-07-31T02:47:36.176Z,16.31
2022-07-31T02:50:27.292Z,16.31
2022-07-31T02:53:11.664Z,16.26
2022-07-31T02:56:04.611Z,16.21
2022-07-31T02:58:55.858Z,16.19
2022-07-31T03:01:49.618Z,16.16
2022-07-31T03:04:41.114Z,16.13
2022-07-31T03:07:32.523Z,16.11
2022-07-31T03:10:27.158Z,16.08
2022-07-31T03:13:27.106Z,16.05
2022-07-31T03:16:20.953Z,16.01
2022-07-31T03:19:13.799Z,15.98
2022-07-31T03:21:45.442Z,15.94
2022-07-31T03:24:37.807Z,15.91
2022-07-31T03:27:18.597Z,15.89
2022-07-31T03:30:24.961Z,15.87
2022-07-31T03:33:10.314Z,15.83
2022-07-31T03:35:44.481Z,15.81
2022-07-31T03:38:39.642Z,15.79
2022-07-31T03:41:36.733Z,15.78
2022-07-31T03:44:35.543Z,15.77
2022-07-31T03:47:31.153Z,15.77
2022-07-31T03:50:24.851Z,15.79
2022-07-31T03:53:22.634Z,15.79
2022-07-31T03:56:18.762Z,15.81
2022-07-31T03:58:52.656Z,15.83
2022-07-31T04:01:24.532Z,15.87
2022-07-31T04:04:15.785Z,15.91
2022-07-31T04:07:17.343Z,15.95
2022-07-31T04:10:00.386Z,15.98
2022-07-31T04:12:51.527Z,16.05
2022-07-31T04:15:31.480Z,16.08
2022-07-31T04:18:22.457Z,16.11
2022-07-31T04:21:18.458Z,16.14
2022-07-31T04:24:11.838Z,16.18
2022-07-31T04:26:57.935Z,16.22
2022-07-31T04:29:38.466Z,16.26
2022-07-31T04:32:32.983Z,16.32
2022-07-31T04:35:24.873Z,16.38
2022-07-31T04:38:16.840Z,16.44
2022-07-31T04:41:09.328Z,16.46
2022-07-31T04:44:02.081Z,16.49
2022-07-31T04:46:53.366Z,16.53
2022-07-31T04:49:37.972Z,16.57
2022-07-31T04:52:31.507Z,16.66
2022-07-31T04:55:24.510Z,16.74
2022-07-31T04:58:16.128Z,16.81
2022-07-31T05:01:00.071Z,16.86
2022-07-31T05:03:45.142Z,16.94
2022-07-31T05:06:44.723Z,17.03
2022-07-31T05:09:36.661Z,17.08
2022-07-31T05:12:30.637Z,17.13
2022-07-31T05:15:09.101Z,17.17
2022-07-31T05:18:08.085Z,17.21
2022-07-31T05:21:14.665Z,17.20
2022-07-31T05:24:08.038Z,17.21
2022-07-31T05:26:53.757Z,17.22
2022-07-31T05:29:43.673Z,17.25
2022-07-31T05:32:39.140Z,17.30
2022-07-31T05:35:31.239Z,17.37
2022-07-31T05:38:25.948Z,17.44
2022-07-31T05:41:19.329Z,17.51
2022-07-31T05:44:22.525Z,17.58
2022-07-31T05:47:13.294Z,17.66
2022-07-31T05:49:44.454Z,17.71
2022-07-31T05:52:19.614Z,17.82
2022-07-31T05:55:11.395Z,17.91
2022-07-31T05:58:00.845Z,18.01
2022-07-31T06:00:34.567Z,18.11
2022-07-31T06:03:16.528Z,18.23
2022-07-31T06:06:25.992Z,18.37
2022-07-31T06:08:55.144Z,18.45
2022-07-31T06:11:36.052Z,18.51
2022-07-31T06:14:06.838Z,18.57
2022-07-31T06:16:55.845Z,18.61
2022-07-31T06:19:37.194Z,18.65
2022-07-31T06:22:28.208Z,18.71
2022-07-31T06:25:13.608Z,18.78
2022-07-31T06:28:10.344Z,18.84
2022-07-31T06:30:42.332Z,18.90
2022-07-31T06:33:37.031Z,18.97
2022-07-31T06:36:08.697Z,19.06
2022-07-31T06:39:02.588Z,19.11
2022-07-31T06:41:53.333Z,19.16
2022-07-31T06:44:54.049Z,19.23
2022-07-31T06:47:53.847Z,19.31
2022-07-31T06:51:08.581Z,19.39
2022-07-31T06:53:50.819Z,19.49
2022-07-31T06:56:21.353Z,19.60
2022-07-31T06:59:12.269Z,19.73
2022-07-31T07:01:42.986Z,19.86
2022-07-31T07:04:16.453Z,20.00
2022-07-31T07:06:50.662Z,20.15
2022-07-31T07:09:21.542Z,20.31
2022-07-31T07:11:55.295Z,20.49
2022-07-31T07:14:29.566Z,20.67
2022-07-31T07:17:03.559Z,20.88
2022-07-31T07:19:45.554Z,21.16
2022-07-31T07:22:20.452Z,21.39
2022-07-31T07:25:02.382Z,21.55
2022-07-31T07:27:33.259Z,21.73
2022-07-31T07:30:05.858Z,21.88
2022-07-31T07:32:36.467Z,22.02
2022-07-31T07:35:12.425Z,22.14
2022-07-31T07:37:54.074Z,22.24
2022-07-31T07:40:25.065Z,22.29
2022-07-31T07:42:59.935Z,22.36
2022-07-31T07:45:36.973Z,22.46
2022-07-31T07:48:08.209Z,22.56
2022-07-31T07:50:58.518Z,22.69
2022-07-31T07:53:35.133Z,22.76
2022-07-31T07:56:33.530Z,22.82
2022-07-31T07:59:25.137Z,22.86
2022-07-31T08:02:34.378Z,22.80
2022-07-31T08:05:06.891Z,22.80
2022-07-31T08:07:41.787Z,22.83
2022-07-31T08:10:36.319Z,22.85
2022-07-31T08:13:14.656Z,22.89
2022-07-31T08:16:03.578Z,22.96
2022-07-31T08:18:37.540Z,23.06
2022-07-31T08:21:08.168Z,23.23
2022-07-31T08:23:38.977Z,23.40
2022-07-31T08:26:13.203Z,23.54
2022-07-31T08:28:50.349Z,23.66
2022-07-31T08:31:22.921Z,23.81
2022-07-31T08:34:31.231Z,24.06
2022-07-31T08:37:51.692Z,24.29
2022-07-31T08:39:57.312Z,24.48
2022-07-31T08:42:28.110Z,24.70
2022-07-31T08:44:58.812Z,24.87
2022-07-31T08:47:36.590Z,25.01
2022-07-31T08:50:13.909Z,25.13
2022-07-31T08:52:46.253Z,25.29
2022-07-31T08:55:56.325Z,25.47
2022-07-31T08:58:16.057Z,25.66
2022-07-31T09:00:46.725Z,25.80
2022-07-31T09:03:18.357Z,26.00
2022-07-31T09:05:54.997Z,26.18
2022-07-31T09:08:26.256Z,26.27
2022-07-31T09:11:06.805Z,26.32
2022-07-31T09:14:01.694Z,26.34
2022-07-31T09:17:00.960Z,26.32
2022-07-31T09:19:53.672Z,26.19
2022-07-31T09:22:32.479Z,26.20
2022-07-31T09:25:13.147Z,26.20
2022-07-31T09:27:44.236Z,26.24
2022-07-31T09:30:13.716Z,26.31
2022-07-31T09:33:17.888Z,26.34
2022-07-31T09:36:07.835Z,26.52
2022-07-31T09:38:42.407Z,26.64
2022-07-31T09:42:01.301Z,26.73
2022-07-31T09:44:41.369Z,26.90
2022-07-31T09:47:22.965Z,27.14
2022-07-31T09:49:58.314Z,27.43
2022-07-31T09:52:30.290Z,27.68
2022-07-31T09:55:14.974Z,27.92
2022-07-31T09:57:58.967Z,28.19
2022-07-31T10:00:33.005Z,28.39
2022-07-31T10:03:04.701Z,28.58
2022-07-31T10:05:38.081Z,28.59
2022-07-31T10:08:09.694Z,28.56
2022-07-31T10:10:59.432Z,28.50
2022-07-31T10:13:37.500Z,28.46
2022-07-31T10:16:11.546Z,28.40
2022-07-31T10:18:54.359Z,28.37
2022-07-31T10:21:43.589Z,28.36
2022-07-31T10:24:28.121Z,28.27
2022-07-31T10:27:07.992Z,28.25
2022-07-31T10:29:42.980Z,28.32
2022-07-31T10:32:14.489Z,28.40
2022-07-31T10:35:07.523Z,28.49
2022-07-31T10:38:20.003Z,28.71
2022-07-31T10:41:05.598Z,29.07
2022-07-31T10:43:49.869Z,29.46
2022-07-31T10:46:46.781Z,29.68
2022-07-31T10:49:46.420Z,29.87
2022-07-31T10:52:39.170Z,30.01
2022-07-31T10:55:22.201Z,30.10
2022-07-31T10:58:20.661Z,30.28
2022-07-31T11:01:05.515Z,30.58
2022-07-31T11:03:46.531Z,30.87
2022-07-31T11:06:44.585Z,30.97
2022-07-31T11:09:33.868Z,31.04
2022-07-31T11:12:59.464Z,30.95
2022-07-31T11:15:40.730Z,30.99
2022-07-31T11:18:34.408Z,30.99
2022-07-31T11:21:35.890Z,30.91
2022-07-31T11:24:03.836Z,30.99
2022-07-31T11:26:41.318Z,31.31
2022-07-31T11:30:00.935Z,31.60
2022-07-31T11:32:16.037Z,31.78
2022-07-31T11:34:53.411Z,32.00
2022-07-31T11:37:25.691Z,32.14
2022-07-31T11:39:57.933Z,32.07
2022-07-31T11:42:33.243Z,31.86
2022-07-31T11:45:10.871Z,31.58
2022-07-31T11:48:12.642Z,31.38
2022-07-31T11:50:42.310Z,31.21
2022-07-31T11:53:13.259Z,31.15
2022-07-31T11:55:54.919Z,31.06
2022-07-31T11:58:27.118Z,30.93
2022-07-31T12:00:59.323Z,30.94
2022-07-31T12:03:32.891Z,31.07
2022-07-31T12:06:04.367Z,31.54
2022-07-31T12:08:35.620Z,31.75
2022-07-31T12:11:08.164Z,31.68
2022-07-31T12:13:38.704Z,31.55
2022-07-31T12:16:11.798Z,31.47
2022-07-31T12:18:52.252Z,31.43
2022-07-31T12:21:31.338Z,31.37
2022-07-31T12:24:02.539Z,31.29
2022-07-31T12:26:34.118Z,31.37
2022-07-31T12:29:07.405Z,31.62
2022-07-31T12:31:49.117Z,31.68
2022-07-31T12:34:30.899Z,31.94
2022-07-31T12:37:03.931Z,32.11
2022-07-31T12:39:53.835Z,32.15
2022-07-31T12:42:33.260Z,32.16
2022-07-31T12:45:19.763Z,32.28
2022-07-31T12:47:55.195Z,32.76
2022-07-31T12:50:27.500Z,33.13
2022-07-31T12:53:01.537Z,33.69
2022-07-31T12:55:34.656Z,33.97
2022-07-31T12:58:05.085Z,34.17
2022-07-31T13:00:39.808Z,34.47
2022-07-31T13:03:10.889Z,34.22
2022-07-31T13:05:41.420Z,34.21
2022-07-31T13:08:13.228Z,34.12
2022-07-31T13:10:44.015Z,33.86
2022-07-31T13:13:14.938Z,33.63
2022-07-31T13:15:45.369Z,33.39
2022-07-31T13:18:15.840Z,33.30
2022-07-31T13:20:46.339Z,33.12
2022-07-31T13:23:16.875Z,33.07
2022-07-31T13:25:47.488Z,32.90
2022-07-31T13:28:18.041Z,32.79
2022-07-31T13:30:53.223Z,33.12
2022-07-31T13:33:25.652Z,33.61
2022-07-31T13:35:56.151Z,33.90
2022-07-31T13:38:26.614Z,34.12
2022-07-31T13:41:14.994Z,34.52
2022-07-31T13:44:00.088Z,35.10
2022-07-31T13:46:32.679Z,35.42
2022-07-31T13:49:08.084Z,35.61
2022-07-31T13:51:39.303Z,35.48
2022-07-31T13:54:09.849Z,35.12
2022-07-31T13:56:43.664Z,34.70
2022-07-31T13:59:18.233Z,34.39
2022-07-31T14:02:03.780Z,34.09
2022-07-31T14:04:38.441Z,33.92
2022-07-31T14:07:10.072Z,33.79
2022-07-31T14:09:46.998Z,33.84
2022-07-31T14:12:25.847Z,34.09
2022-07-31T14:14:56.247Z,34.45
2022-07-31T14:17:26.761Z,34.51
2022-07-31T14:19:57.226Z,34.05
2022-07-31T14:22:27.871Z,33.73
2022-07-31T14:24:58.345Z,33.36
2022-07-31T14:27:28.807Z,33.09
2022-07-31T14:29:59.349Z,32.72
2022-07-31T14:32:30.744Z,32.43
2022-07-31T14:35:06.001Z,32.15
2022-07-31T14:37:39.044Z,32.02
2022-07-31T14:40:11.827Z,31.95
2022-07-31T14:42:42.695Z,31.79
2022-07-31T14:45:14.230Z,31.66
2022-07-31T14:47:46.452Z,31.68
2022-07-31T14:50:19.677Z,31.63
2022-07-31T14:52:50.682Z,31.53
2022-07-31T14:55:20.950Z,31.43
2022-07-31T14:57:52.135Z,31.33
2022-07-31T15:00:22.707Z,31.30
2022-07-31T15:02:51.709Z,31.31
2022-07-31T15:06:39.650Z,31.44
2022-07-31T15:08:12.901Z,31.83
2022-07-31T15:10:41.996Z,31.94
2022-07-31T15:13:12.456Z,32.04
2022-07-31T15:15:41.428Z,32.53
2022-07-31T15:18:11.994Z,32.88
2022-07-31T15:20:42.541Z,32.81
2022-07-31T15:23:13.072Z,32.59
2022-07-31T15:25:43.884Z,32.58
2022-07-31T15:28:14.337Z,32.43
2022-07-31T15:30:43.441Z,32.40
2022-07-31T15:33:13.965Z,32.63
2022-07-31T15:35:44.443Z,32.97
2022-07-31T15:38:13.397Z,33.11
2022-07-31T15:40:43.929Z,33.02
2022-07-31T15:43:14.529Z,32.83
2022-07-31T15:45:45.253Z,32.90
2022-07-31T15:48:15.897Z,33.09
2022-07-31T15:50:46.606Z,33.49
2022-07-31T15:53:17.059Z,33.91
2022-07-31T15:55:47.567Z,34.06
2022-07-31T15:58:18.058Z,33.98
2022-07-31T16:00:48.648Z,34.03
2022-07-31T16:03:19.211Z,34.22
2022-07-31T16:05:56.232Z,34.38
2022-07-31T16:08:35.255Z,34.47
2022-07-31T16:11:06.568Z,34.32
2022-07-31T16:13:37.308Z,34.03
2022-07-31T16:16:08.554Z,33.77
2022-07-31T16:18:39.960Z,33.64
2022-07-31T16:21:10.492Z,33.45
2022-07-31T16:23:41.884Z,33.22
2022-07-31T16:26:14.310Z,33.02
2022-07-31T16:28:49.023Z,32.80
2022-07-31T16:31:29.995Z,32.63
2022-07-31T16:34:01.911Z,32.49
2022-07-31T16:36:32.451Z,32.34
2022-07-31T16:39:19.481Z,32.21
2022-07-31T16:41:54.970Z,32.07
2022-07-31T16:44:25.843Z,31.96
2022-07-31T16:46:55.097Z,31.86
2022-07-31T16:49:35.712Z,31.74
2022-07-31T16:52:08.007Z,31.62
2022-07-31T16:54:38.764Z,31.58
2022-07-31T16:57:09.944Z,31.55
2022-07-31T16:59:57.203Z,31.50
2022-07-31T17:02:30.793Z,31.44
2022-07-31T17:05:01.517Z,31.41
2022-07-31T17:07:30.396Z,31.41
2022-07-31T17:10:00.904Z,31.39
2022-07-31T17:12:30.077Z,31.38
2022-07-31T17:15:00.609Z,31.37
2022-07-31T17:17:30.377Z,31.32
2022-07-31T17:20:01.753Z,31.25
2022-07-31T17:22:30.865Z,31.14
2022-07-31T17:25:01.491Z,31.02
2022-07-31T17:27:30.478Z,30.89
2022-07-31T17:30:01.826Z,30.82
2022-07-31T17:32:33.939Z,30.74
2022-07-31T17:35:05.737Z,30.67
2022-07-31T17:37:37.404Z,30.61
2022-07-31T17:40:33.575Z,30.56
2022-07-31T17:43:00.902Z,30.51
2022-07-31T17:45:59.809Z,30.45
2022-07-31T17:48:29.566Z,30.39
2022-07-31T17:51:00.382Z,30.32
2022-07-31T17:53:54.998Z,30.25
2022-07-31T17:56:22.861Z,30.20
2022-07-31T17:58:53.444Z,30.16
2022-07-31T18:01:26.952Z,30.11
2022-07-31T18:03:59.661Z,30.07
2022-07-31T18:06:30.321Z,30.00
2022-07-31T18:09:00.554Z,29.96
2022-07-31T18:11:35.322Z,29.88
2022-07-31T18:14:06.243Z,29.81
2022-07-31T18:16:37.559Z,29.75
2022-07-31T18:19:08.230Z,29.71
2022-07-31T18:21:37.621Z,29.64
2022-07-31T18:24:10.439Z,29.58
2022-07-31T18:26:42.870Z,29.52
2022-07-31T18:29:17.092Z,29.46
2022-07-31T18:31:48.311Z,29.36
2022-07-31T18:34:19.319Z,29.29
2022-07-31T18:36:54.360Z,29.20
2022-07-31T18:39:26.776Z,29.13
2022-07-31T18:41:57.221Z,29.06
2022-07-31T18:44:27.757Z,29.01
2022-07-31T18:46:58.296Z,28.93
2022-07-31T18:51:00.843Z,28.83
2022-07-31T18:52:19.986Z,28.76
2022-07-31T18:54:54.058Z,28.65
2022-07-31T18:57:25.083Z,28.54
2022-07-31T18:59:55.870Z,28.45
2022-07-31T19:02:26.457Z,28.38
2022-07-31T19:04:57.370Z,28.29
2022-07-31T19:07:28.583Z,28.24
2022-07-31T19:09:59.167Z,28.17
2022-07-31T19:12:29.653Z,28.08
2022-07-31T19:15:00.044Z,27.99
2022-07-31T19:17:44.459Z,27.91
2022-07-31T19:20:41.274Z,27.82
2022-07-31T19:23:12.661Z,27.74
2022-07-31T19:26:03.036Z,27.67
2022-07-31T19:28:34.801Z,27.63
2022-07-31T19:31:03.825Z,27.58
2022-07-31T19:33:34.429Z,27.52
2022-07-31T19:36:05.257Z,27.47
2022-07-31T19:38:35.822Z,27.39
2022-07-31T19:41:06.571Z,27.31
2022-07-31T19:43:38.331Z,27.22
2022-07-31T19:46:11.742Z,27.14
2022-07-31T19:48:44.981Z,27.07
2022-07-31T19:51:16.652Z,27.04
2022-07-31T19:53:47.609Z,27.01
2022-07-31T19:56:20.800Z,26.94
2022-07-31T19:58:52.379Z,26.87
2022-07-31T20:01:23.368Z,26.80
2022-07-31T20:03:57.436Z,26.69
2022-07-31T20:06:28.915Z,26.56
2022-07-31T20:08:59.599Z,26.45
2022-07-31T20:11:30.158Z,26.35
2022-07-31T20:14:01.014Z,26.24
2022-07-31T20:16:29.945Z,26.13
2022-07-31T20:19:17.978Z,26.01
2022-07-31T20:21:57.686Z,25.85
2022-07-31T20:24:30.723Z,25.73
2022-07-31T20:27:01.265Z,25.61
2022-07-31T20:29:32.596Z,25.55
2022-07-31T20:32:03.508Z,25.53
2022-07-31T20:34:34.277Z,25.45
2022-07-31T20:37:04.835Z,25.33
2022-07-31T20:39:35.414Z,25.15
2022-07-31T20:42:07.399Z,24.90
2022-07-31T20:44:40.601Z,24.61
2022-07-31T20:47:11.330Z,24.35
2022-07-31T20:49:42.030Z,24.14
2022-07-31T20:52:12.788Z,23.96
2022-07-31T20:54:43.357Z,23.80
2022-07-31T20:57:14.981Z,23.60
2022-07-31T20:59:45.602Z,23.39
2022-07-31T21:02:16.186Z,23.21
2022-07-31T21:04:59.270Z,23.04
2022-07-31T21:07:50.389Z,22.86
2022-07-31T21:10:24.471Z,22.74
2022-07-31T21:12:58.695Z,22.62
2022-07-31T21:15:43.777Z,22.55
2022-07-31T21:18:22.659Z,22.44
2022-07-31T21:21:08.817Z,22.29
2022-07-31T21:23:48.909Z,22.18
2022-07-31T21:26:21.294Z,22.10
2022-07-31T21:28:56.913Z,22.01
2022-07-31T21:31:48.903Z,21.88
2022-07-31T21:34:28.484Z,21.82
2022-07-31T21:37:39.182Z,21.70
2022-07-31T21:40:29.407Z,21.58
2022-07-31T21:43:22.512Z,21.49
2022-07-31T21:46:08.783Z,21.41
2022-07-31T21:49:00.158Z,21.33
2022-07-31T21:51:37.503Z,21.25
2022-07-31T21:54:47.836Z,21.20
2022-07-31T21:57:26.856Z,21.15
2022-07-31T22:00:15.141Z,21.10
2022-07-31T22:02:59.234Z,21.04
2022-07-31T22:06:14.438Z,20.98
2022-07-31T22:08:48.424Z,20.92
2022-07-31T22:11:36.742Z,20.86
2022-07-31T22:14:09.074Z,20.80
2022-07-31T22:16:51.773Z,20.74
2022-07-31T22:19:29.331Z,20.67
2022-07-31T22:22:21.819Z,20.62
2022-07-31T22:24:59.145Z,20.57
2022-07-31T22:27:51.861Z,20.52
2022-07-31T22:30:43.715Z,20.47
2022-07-31T22:33:30.404Z,20.41
2022-07-31T22:36:10.761Z,20.36
2022-07-31T22:39:05.163Z,20.28
2022-07-31T22:41:46.767Z,20.22
2022-07-31T22:44:43.774Z,20.22
2022-07-31T22:47:19.647Z,20.21
2022-07-31T22:50:13.692Z,20.15
2022-07-31T22:52:58.965Z,20.13
2022-07-31T22:55:44.772Z,20.06
2022-07-31T22:58:28.362Z,20.05
2022-07-31T23:01:03.096Z,20.01
2022-07-31T23:03:34.879Z,19.97
2022-07-31T23:06:31.290Z,19.89
2022-07-31T23:09:24.445Z,19.89
2022-07-31T23:11:57.645Z,19.86
2022-07-31T23:14:42.630Z,19.80
2022-07-31T23:17:48.427Z,19.80
2022-07-31T23:21:16.018Z,19.77
2022-07-31T23:23:49.393Z,19.73
2022-07-31T23:26:27.944Z,19.69
2022-07-31T23:29:10.014Z,19.64
2022-07-31T23:31:56.520Z,19.60
2022-07-31T23:34:30.554Z,19.57
2022-07-31T23:37:09.287Z,19.54
2022-07-31T23:39:52.136Z,19.55
2022-07-31T23:42:41.876Z,19.58
2022-07-31T23:48:56.878Z,19.61
2022-07-31T23:51:28.031Z,19.60
2022-07-31T23:54:11.011Z,19.60
2022-07-31T23:56:58.742Z,19.56
